Time;durP1;ratioP1;P1;durP2;ratioP2;P2;SDS_P1;SDS_P2;PMS_P1;PMS_P2;Temp;Humidity;BMP_temperature;BMP_pressure;BME280_temperature;BME280_humidity;BME280_pressure;Samples;Min_cycle;Max_cycle;Signal;HPM_P1;HPM_P2
2022/01/05 00:00:15;;;;;;;0.50;0.50;;;;;;;3.37;92.70;95385.62;29373;305;63005;-78
2022/01/05 00:00:47;;;;;;;0.60;0.60;;;;;;;3.39;92.51;95385.34;29395;236;63009;-52
2022/01/05 00:01:18;;;;;;;0.60;0.60;;;;;;;3.41;92.35;95388.56;29395;234;63007;-52
2022/01/05 00:01:50;;;;;;;0.50;0.50;;;;;;;3.41;92.37;95389.34;29395;202;63005;-82
2022/01/05 00:02:22;;;;;;;0.50;0.50;;;;;;;3.39;92.31;95383.47;29395;231;63010;-78
2022/01/05 00:02:53;;;;;;;0.60;0.60;;;;;;;3.35;91.65;95387.81;29395;209;63009;-77
2022/01/05 00:03:24;;;;;;;0.60;0.60;;;;;;;3.34;91.66;95381.66;29395;231;63004;-52
2022/01/05 00:03:57;;;;;;;0.50;0.50;;;;;;;3.36;91.45;95374.13;29394;199;64009;-81
2022/01/05 00:04:29;;;;;;;0.60;0.60;;;;;;;3.37;91.40;95381.09;29395;229;63004;-79
2022/01/05 00:05:00;;;;;;;0.60;0.60;;;;;;;3.43;91.42;95371.09;29395;203;63008;-79
2022/01/05 00:05:32;;;;;;;0.52;0.52;;;;;;;3.44;91.30;95378.06;29395;200;63005;-81
2022/01/05 00:06:04;;;;;;;0.60;0.60;;;;;;;3.42;91.09;95384.78;29395;258;63009;-53
2022/01/05 00:06:35;;;;;;;0.60;0.60;;;;;;;3.41;91.25;95380.50;29373;236;63005;-77
2022/01/05 00:07:10;;;;;;;0.50;0.50;;;;;;;3.40;91.15;95376.22;29395;208;63009;-78
2022/01/05 00:07:41;;;;;;;0.60;0.60;;;;;;;3.41;91.30;95385.88;29395;222;63005;-53
2022/01/05 00:08:14;;;;;;;0.60;0.60;;;;;;;3.41;90.91;95385.88;29373;237;63009;-76
2022/01/05 00:08:46;;;;;;;0.50;0.50;;;;;;;3.40;91.17;95384.28;29395;215;63005;-53
2022/01/05 00:09:17;;;;;;;0.50;0.50;;;;;;;3.39;91.07;95380.81;29394;211;64009;-76
2022/01/05 00:09:48;;;;;;;0.55;0.55;;;;;;;3.39;91.01;95382.69;29395;237;63004;-79
2022/01/05 00:10:20;;;;;;;0.60;0.60;;;;;;;3.40;91.02;95376.22;29395;240;63009;-79
2022/01/05 00:10:53;;;;;;;0.60;0.60;;;;;;;3.35;90.37;95380.56;29395;198;63004;-77
2022/01/05 00:11:24;;;;;;;0.60;0.60;;;;;;;3.33;90.33;95377.38;29395;236;63019;-52
2022/01/05 00:11:56;;;;;;;0.60;0.60;;;;;;;3.31;90.78;95387.56;29395;217;63004;-79
2022/01/05 00:12:27;;;;;;;0.60;0.60;;;;;;;3.30;90.56;95388.66;29395;211;63008;-74
2022/01/05 00:12:58;;;;;;;0.60;0.60;;;;;;;3.32;91.03;95383.81;29395;258;63005;-53
2022/01/05 00:13:31;;;;;;;0.60;0.60;;;;;;;3.30;91.22;95391.34;29394;229;64009;-79
2022/01/05 00:14:02;;;;;;;0.60;0.60;;;;;;;3.31;91.41;95381.41;29395;197;63005;-54
2022/01/05 00:14:34;;;;;;;0.60;0.60;;;;;;;3.31;91.11;95381.41;29395;205;63009;-79
2022/01/05 00:15:06;;;;;;;0.60;0.60;;;;;;;3.32;91.54;95380.31;29394;203;64005;-79
2022/01/05 00:15:37;;;;;;;0.60;0.60;;;;;;;3.33;91.65;95382.72;29395;214;63016;-75
2022/01/05 00:16:09;;;;;;;0.60;0.60;;;;;;;3.34;91.68;95378.97;29395;240;63005;-77
2022/01/05 00:16:41;;;;;;;0.50;0.50;;;;;;;3.35;91.61;95383.25;29395;315;63009;-68
2022/01/05 00:17:12;;;;;;;0.60;0.60;;;;;;;3.34;91.69;95376.28;29395;402;63004;-53
2022/01/05 00:17:45;;;;;;;0.60;0.60;;;;;;;3.35;91.72;95380.56;29395;204;63009;-70
2022/01/05 00:18:16;;;;;;;0.60;0.60;;;;;;;3.39;91.51;95377.31;29395;257;63004;-77
2022/01/05 00:18:48;;;;;;;0.60;0.60;;;;;;;3.38;91.40;95381.87;29394;313;64009;-77
2022/01/05 00:19:19;;;;;;;0.60;0.60;;;;;;;3.44;90.91;95380.75;29395;220;63004;-77
2022/01/05 00:19:50;;;;;;;0.60;0.60;;;;;;;3.45;90.72;95371.62;29395;218;63008;-78
2022/01/05 00:20:24;;;;;;;0.60;0.60;;;;;;;3.44;90.64;95382.63;29396;196;63004;-79
2022/01/05 00:21:05;;;;;;;0.60;0.60;;;;;;;3.54;90.96;95375.25;29395;236;64009;-78
2022/01/05 00:21:40;;;;;;;0.60;0.60;;;;;;;3.55;90.48;95373.38;29396;239;63005;-52
2022/01/05 00:22:11;;;;;;;0.60;0.60;;;;;;;3.52;89.93;95373.94;29396;199;63014;-76
2022/01/05 00:22:45;;;;;;;0.60;0.60;;;;;;;3.50;90.24;95378.78;29396;238;63005;-52
2022/01/05 00:23:17;;;;;;;0.50;0.50;;;;;;;3.47;90.21;95374.00;29396;267;63009;-52
2022/01/05 00:23:48;;;;;;;0.57;0.57;;;;;;;3.42;90.49;95376.75;29396;223;63005;-52
2022/01/05 00:24:19;;;;;;;0.60;0.60;;;;;;;3.50;90.16;95384.16;29396;244;63009;-53
2022/01/05 00:24:51;;;;;;;0.60;0.60;;;;;;;3.55;89.83;95370.69;29396;199;63004;-69
2022/01/05 00:25:22;;;;;;;0.60;0.60;;;;;;;3.54;89.00;95382.50;29396;255;63009;-53
2022/01/05 00:25:53;;;;;;;0.60;0.60;;;;;;;3.51;89.20;95381.19;29396;230;63004;-73
2022/01/05 00:26:27;;;;;;;0.60;0.60;;;;;;;3.47;89.34;95368.63;29395;280;64009;-53
2022/01/05 00:26:59;;;;;;;0.60;0.60;;;;;;;3.45;89.62;95373.50;29396;237;63004;-73
2022/01/05 00:27:31;;;;;;;0.60;0.60;;;;;;;3.44;89.69;95370.03;29396;208;63008;-74
2022/01/05 00:28:04;;;;;;;0.50;0.50;;;;;;;3.46;90.05;95367.06;29396;239;63005;-73
2022/01/05 00:28:38;;;;;;;0.60;0.60;;;;;;;3.45;89.72;95378.88;29396;222;63009;-73
2022/01/05 00:29:09;;;;;;;0.60;0.60;;;;;;;3.47;89.77;95374.00;29396;219;63005;-77
2022/01/05 00:29:41;;;;;;;0.60;0.60;;;;;;;3.44;89.39;95370.03;29396;248;63009;-52
2022/01/05 00:30:12;;;;;;;0.60;0.60;;;;;;;3.41;89.68;95372.47;29395;199;64005;-69
2022/01/05 00:30:44;;;;;;;0.60;0.60;;;;;;;3.39;89.85;95377.31;29396;228;63015;-78
2022/01/05 00:31:16;;;;;;;0.60;0.60;;;;;;;3.39;90.21;95377.31;29396;197;63005;-52
2022/01/05 00:31:50;;;;;;;0.60;0.60;;;;;;;3.37;90.41;95378.41;29395;233;64009;-53
2022/01/05 00:32:25;;;;;;;0.60;0.60;;;;;;;3.36;90.13;95379.47;29395;235;64004;-76
2022/01/05 00:32:57;;;;;;;0.60;0.60;;;;;;;3.35;90.48;95377.88;29396;221;63009;-71
2022/01/05 00:33:30;;;;;;;0.60;0.60;;;;;;;3.39;90.22;95371.94;29395;228;64004;-73
2022/01/05 00:34:03;;;;;;;0.60;0.60;;;;;;;3.39;90.37;95371.94;29396;196;63008;-75
2022/01/05 00:34:41;;;;;;;0.60;0.60;;;;;;;3.39;90.66;95366.59;29396;206;63004;-80
2022/01/05 00:35:12;;;;;;;0.60;0.60;;;;;;;3.42;90.36;95355.31;29396;201;63008;-52
2022/01/05 00:35:46;;;;;;;1.73;1.73;;;;;;;3.44;90.52;95353.13;29396;215;63005;-52
2022/01/05 00:36:18;;;;;;;0.60;0.60;;;;;;;3.42;90.29;95355.31;29396;211;63009;-73
2022/01/05 00:36:49;;;;;;;0.52;0.52;;;;;;;3.37;90.56;95348.09;29396;263;63005;-53
2022/01/05 00:37:20;;;;;;;0.57;0.57;;;;;;;3.35;90.60;95340.34;29396;222;63009;-70
2022/01/05 00:37:52;;;;;;;0.60;0.60;;;;;;;3.33;90.64;95334.47;29396;242;63005;-54
2022/01/05 00:38:23;;;;;;;0.60;0.60;;;;;;;3.33;90.58;95336.34;29396;297;63009;-52
2022/01/05 00:38:55;;;;;;;0.60;0.60;;;;;;;3.33;90.49;95337.16;29395;198;64004;-54
2022/01/05 00:39:29;;;;;;;0.60;0.60;;;;;;;3.35;90.58;95337.66;29396;233;63009;-71
2022/01/05 00:40:00;;;;;;;0.50;0.50;;;;;;;3.40;90.00;95344.84;29396;239;63004;-53
2022/01/05 00:40:32;;;;;;;0.60;0.60;;;;;;;3.37;89.53;95342.75;29396;214;63019;-73
2022/01/05 00:41:04;;;;;;;0.60;0.60;;;;;;;3.34;89.45;95336.06;29395;277;64004;-53
2022/01/05 00:41:35;;;;;;;0.50;0.50;;;;;;;3.32;89.66;95340.91;29396;282;63008;-76
2022/01/05 00:42:08;;;;;;;0.50;0.50;;;;;;;3.30;90.14;95337.72;29396;244;63004;-74
2022/01/05 00:42:41;;;;;;;0.60;0.60;;;;;;;3.30;90.35;95337.72;29395;208;64009;-52
2022/01/05 00:43:14;;;;;;;0.60;0.60;;;;;;;3.30;90.46;95343.06;29396;229;63005;-73
2022/01/05 00:43:45;;;;;;;0.60;0.60;;;;;;;3.28;90.35;95339.88;29396;226;63009;-53
2022/01/05 00:44:19;;;;;;;0.60;0.60;;;;;;;3.27;90.88;95334.81;29396;238;63005;-71
2022/01/05 00:44:50;;;;;;;0.50;0.50;;;;;;;3.27;91.01;95338.28;29395;235;64009;-73
2022/01/05 00:45:23;;;;;;;0.60;0.60;;;;;;;3.27;91.07;95343.66;29396;210;63011;-71
2022/01/05 00:45:54;;;;;;;0.60;0.60;;;;;;;3.27;90.68;95332.12;29396;240;63023;-53
2022/01/05 00:46:25;;;;;;;0.60;0.60;;;;;;;3.26;91.12;95336.69;29396;333;63004;-75
2022/01/05 00:46:57;;;;;;;0.60;0.60;;;;;;;3.26;91.07;95336.69;29374;203;63009;-53
2022/01/05 00:47:31;;;;;;;0.60;0.60;;;;;;;3.26;91.33;95335.87;29396;223;63004;-72
2022/01/05 00:48:04;;;;;;;0.60;0.60;;;;;;;3.28;91.13;95339.09;29396;283;63009;-66
2022/01/05 00:48:37;;;;;;;0.55;0.55;;;;;;;3.27;91.26;95332.91;29396;197;63004;-66
2022/01/05 00:49:09;;;;;;;0.55;0.55;;;;;;;3.31;90.83;95323.22;29396;297;63008;-77
2022/01/05 00:49:40;;;;;;;0.50;0.50;;;;;;;3.36;90.71;95325.88;29372;196;64004;-70
2022/01/05 00:50:11;;;;;;;0.57;0.57;;;;;;;3.37;90.01;95335.50;29396;272;63009;-69
2022/01/05 00:50:42;;;;;;;0.60;0.60;;;;;;;3.36;90.27;95331.22;29396;221;63005;-66
2022/01/05 00:51:16;;;;;;;0.57;0.57;;;;;;;3.39;89.75;95329.06;29396;231;63009;-68
2022/01/05 00:51:47;;;;;;;0.57;0.57;;;;;;;3.40;89.87;95330.66;29396;219;63005;-65
2022/01/05 00:52:19;;;;;;;0.60;0.60;;;;;;;3.41;89.65;95330.38;29396;260;63009;-68
2022/01/05 00:52:53;;;;;;;0.50;0.50;;;;;;;3.41;89.50;95332.25;29396;202;63005;-68
2022/01/05 00:53:25;;;;;;;0.60;0.60;;;;;;;3.40;89.21;95325.28;29396;206;63009;-68
2022/01/05 00:53:56;;;;;;;0.60;0.60;;;;;;;3.40;89.53;95327.97;29396;218;63004;-68
2022/01/05 00:54:27;;;;;;;0.50;0.50;;;;;;;3.36;89.31;95323.19;29396;283;63009;-70
2022/01/05 00:54:59;;;;;;;0.60;0.60;;;;;;;3.36;89.93;95331.22;29395;240;64004;-69
2022/01/05 00:55:33;;;;;;;0.60;0.60;;;;;;;3.41;89.81;95332.25;29396;245;63009;-53
2022/01/05 00:56:04;;;;;;;0.60;0.60;;;;;;;3.41;89.66;95333.06;29396;221;63004;-69
2022/01/05 00:56:40;;;;;;;0.60;0.60;;;;;;;3.37;89.63;95332.81;29375;232;63008;-65
2022/01/05 00:57:11;;;;;;;0.60;0.60;;;;;;;3.35;89.50;95334.19;29396;210;63004;-69
2022/01/05 00:57:43;;;;;;;0.60;0.60;;;;;;;3.32;89.50;95332.88;29396;240;63009;-70
2022/01/05 00:58:14;;;;;;;0.60;0.60;;;;;;;3.31;89.62;95333.94;29395;327;64005;-68
2022/01/05 00:58:50;;;;;;;0.60;0.60;;;;;;;3.28;89.67;95329.16;29396;230;63017;-53
2022/01/05 00:59:22;;;;;;;0.60;0.60;;;;;;;3.28;90.07;95325.69;29396;202;63005;-66
2022/01/05 00:59:53;;;;;;;0.60;0.60;;;;;;;3.26;89.73;95319.81;29396;219;63009;-66
2022/01/05 01:00:24;;;;;;;0.60;0.60;;;;;;;3.30;89.90;95318.16;29395;220;64005;-69
2022/01/05 01:00:58;;;;;;;0.60;0.60;;;;;;;3.31;89.73;95315.19;29396;239;63024;-64
2022/01/05 01:01:30;;;;;;;0.60;0.60;;;;;;;3.31;89.79;95317.88;29395;210;64004;-54
2022/01/05 01:02:09;;;;;;;0.60;0.60;;;;;;;3.31;89.51;95312.50;29396;231;63009;-71
2022/01/05 01:02:41;;;;;;;0.60;0.60;;;;;;;3.33;89.75;95313.03;29396;212;63004;-67
2022/01/05 01:03:12;;;;;;;0.60;0.60;;;;;;;3.33;89.27;95307.66;29396;285;63009;-68
2022/01/05 01:03:44;;;;;;;0.60;0.60;;;;;;;3.31;89.59;95307.16;29396;202;63004;-67
2022/01/05 01:04:18;;;;;;;0.60;0.60;;;;;;;3.29;89.66;95305.84;29397;202;63025;-67
2022/01/05 01:04:52;;;;;;;0.60;0.60;;;;;;;3.27;89.44;95306.13;29396;215;64005;-54
2022/01/05 01:05:24;;;;;;;0.60;0.60;;;;;;;3.36;89.83;95312.47;29396;197;64009;-67
2022/01/05 01:05:59;;;;;;;0.60;0.60;;;;;;;3.38;89.55;95306.81;29396;232;64005;-67
2022/01/05 01:06:34;;;;;;;0.60;0.60;;;;;;;3.35;89.32;95307.38;29397;272;63009;-66
2022/01/05 01:07:06;;;;;;;0.60;0.60;;;;;;;3.32;89.54;95310.62;29397;255;63005;-67
2022/01/05 01:07:37;;;;;;;0.60;0.60;;;;;;;3.29;89.41;95319.22;29397;237;63015;-68
2022/01/05 01:08:09;;;;;;;0.60;0.60;;;;;;;3.27;89.64;95314.16;29397;250;63009;-61
2022/01/05 01:08:41;;;;;;;0.60;0.60;;;;;;;3.28;89.54;95323.81;29397;236;63009;-67
2022/01/05 01:09:13;;;;;;;0.60;0.60;;;;;;;3.28;89.87;95321.13;29397;205;63004;-69
2022/01/05 01:09:44;;;;;;;0.60;0.60;;;;;;;3.29;89.84;95322.72;29397;209;63018;-65
2022/01/05 01:10:15;;;;;;;0.60;0.60;;;;;;;3.29;89.93;95325.41;29397;230;63000;-67
2022/01/05 01:10:49;;;;;;;0.60;0.60;;;;;;;3.29;89.58;95330.75;29397;243;63009;-67
2022/01/05 01:11:20;;;;;;;0.60;0.60;;;;;;;3.28;89.69;95334.53;29396;216;64004;-67
2022/01/05 01:11:51;;;;;;;0.60;0.60;;;;;;;3.28;90.12;95334.53;29396;229;64008;-66
2022/01/05 01:12:23;;;;;;;0.60;0.60;;;;;;;3.32;90.37;95334.75;29397;256;63004;-66
2022/01/05 01:12:54;;;;;;;0.60;0.60;;;;;;;3.34;90.16;95343.31;29376;214;63009;-66
2022/01/05 01:13:25;;;;;;;0.60;0.60;;;;;;;3.36;89.81;95341.94;29397;258;63009;-55
2022/01/05 01:13:58;;;;;;;0.60;0.60;;;;;;;3.35;89.89;95344.91;29396;257;64009;-67
2022/01/05 01:14:29;;;;;;;0.60;0.60;;;;;;;3.33;89.85;95342.50;29397;246;63000;-68
2022/01/05 01:15:06;;;;;;;0.60;0.60;;;;;;;3.30;89.61;95332.34;29397;252;63009;-69
2022/01/05 01:15:37;;;;;;;0.60;0.60;;;;;;;3.26;89.83;95331.31;29397;235;63005;-54
2022/01/05 01:16:08;;;;;;;0.60;0.60;;;;;;;3.26;89.83;95336.69;29397;224;63009;-69
2022/01/05 01:16:40;;;;;;;0.60;0.60;;;;;;;3.22;90.25;95327.59;29397;198;63004;-68
2022/01/05 01:17:11;;;;;;;0.60;0.60;;;;;;;3.26;90.04;95334.00;29395;281;64009;-67
2022/01/05 01:17:44;;;;;;;0.60;0.60;;;;;;;3.28;90.48;95334.53;29396;286;64004;-65
2022/01/05 01:18:16;;;;;;;0.60;0.60;;;;;;;3.26;90.43;95335.87;29397;238;63008;-69
2022/01/05 01:18:50;;;;;;;0.55;0.55;;;;;;;3.27;90.66;95337.47;29396;332;63004;-69
2022/01/05 01:19:21;;;;;;;0.60;0.60;;;;;;;3.26;90.36;95334.00;29396;275;63008;-68
2022/01/05 01:19:52;;;;;;;0.60;0.60;;;;;;;3.25;90.50;95328.94;29396;238;63004;-54
2022/01/05 01:20:23;;;;;;;0.50;0.50;;;;;;;3.26;90.15;95328.66;29396;202;63009;-65
2022/01/05 01:20:55;;;;;;;0.60;0.60;;;;;;;3.29;90.50;95330.75;29396;243;63005;-55
2022/01/05 01:21:26;;;;;;;0.60;0.60;;;;;;;3.33;90.14;95331.78;29395;292;63998;-68
2022/01/05 01:21:59;;;;;;;0.50;0.50;;;;;;;3.35;90.04;95332.31;29396;242;63005;-66
2022/01/05 01:22:34;;;;;;;0.60;0.60;;;;;;;3.36;89.67;95325.06;29396;211;63009;-66
2022/01/05 01:23:06;;;;;;;0.60;0.60;;;;;;;3.39;89.85;95337.09;29395;212;64005;-65
2022/01/05 01:23:37;;;;;;;0.60;0.60;;;;;;;3.37;89.44;95337.37;29395;202;64009;-68
2022/01/05 01:24:09;;;;;;;0.60;0.60;;;;;;;3.37;89.63;95338.19;29396;231;63004;-64
2022/01/05 01:24:40;;;;;;;0.60;0.60;;;;;;;3.37;89.21;95338.19;29396;222;63009;-63
2022/01/05 01:25:11;;;;;;;0.60;0.60;;;;;;;3.39;89.35;95345.16;29396;228;63004;-65
2022/01/05 01:25:42;;;;;;;0.50;0.50;;;;;;;3.40;89.08;95342.19;29396;234;63009;-68
2022/01/05 01:26:14;;;;;;;0.50;0.50;;;;;;;3.44;89.33;95342.41;29396;237;63004;-67
2022/01/05 01:26:45;;;;;;;0.50;0.50;;;;;;;3.46;89.08;95345.59;29396;204;63009;-64
2022/01/05 01:27:16;;;;;;;0.60;0.60;;;;;;;3.46;89.09;95341.03;29396;244;63005;-65
2022/01/05 01:27:47;;;;;;;0.60;0.60;;;;;;;3.48;89.04;95346.09;29396;215;63009;-67
2022/01/05 01:28:19;;;;;;;0.50;0.50;;;;;;;3.46;89.07;95346.41;29395;215;64005;-68
2022/01/05 01:28:51;;;;;;;0.60;0.60;;;;;;;3.45;89.42;95344.81;29396;239;63009;-67
2022/01/05 01:29:22;;;;;;;0.60;0.60;;;;;;;3.50;89.33;95349.28;29396;255;63005;-54
2022/01/05 01:29:53;;;;;;;0.50;0.50;;;;;;;3.48;88.80;95348.78;29396;223;63009;-65
2022/01/05 01:30:24;;;;;;;0.50;0.50;;;;;;;3.46;88.92;95350.97;29396;227;63005;-65
2022/01/05 01:30:56;;;;;;;0.60;0.60;;;;;;;3.47;88.80;95353.34;29396;316;63009;-70
2022/01/05 01:31:28;;;;;;;0.60;0.60;;;;;;;3.46;88.95;95356.34;29396;204;63009;-67
2022/01/05 01:31:59;;;;;;;0.50;0.50;;;;;;;3.43;88.99;95356.91;29396;202;63024;-68
2022/01/05 01:32:30;;;;;;;0.60;0.60;;;;;;;3.45;89.13;95358.22;29396;209;63008;-67
2022/01/05 01:33:02;;;;;;;0.60;0.60;;;;;;;3.47;89.22;95363.25;29396;223;63009;-66
2022/01/05 01:33:33;;;;;;;0.60;0.60;;;;;;;3.45;89.25;95357.41;29395;225;64014;-55
2022/01/05 01:34:04;;;;;;;0.60;0.60;;;;;;;3.47;89.03;95357.91;29396;233;63008;-68
2022/01/05 01:34:36;;;;;;;0.50;0.50;;;;;;;3.47;89.37;95353.34;29396;227;63005;-65
2022/01/05 01:35:08;;;;;;;0.60;0.60;;;;;;;3.45;89.26;95355.53;29396;257;63009;-70
2022/01/05 01:35:39;;;;;;;0.60;0.60;;;;;;;3.49;89.15;95361.09;29396;232;63005;-66
2022/01/05 01:36:11;;;;;;;0.60;0.60;;;;;;;3.49;88.68;95356.53;29396;291;63009;-68
2022/01/05 01:36:42;;;;;;;0.60;0.60;;;;;;;3.49;89.17;95361.09;29396;209;63005;-65
2022/01/05 01:37:14;;;;;;;0.60;0.60;;;;;;;3.47;88.95;95352.53;29396;203;63009;-66
2022/01/05 01:37:45;;;;;;;0.50;0.50;;;;;;;3.45;89.35;95360.91;29396;254;63005;-68
2022/01/05 01:38:17;;;;;;;0.60;0.60;;;;;;;3.44;89.55;95364.66;29395;202;64009;-67
2022/01/05 01:38:48;;;;;;;0.55;0.55;;;;;;;3.61;88.92;95364.19;29396;214;63004;-73
2022/01/05 01:39:20;;;;;;;0.60;0.60;;;;;;;3.66;88.07;95358.78;29395;246;64009;-67
2022/01/05 01:39:51;;;;;;;0.60;0.60;;;;;;;3.65;87.75;95367.91;29396;232;63004;-68
2022/01/05 01:40:23;;;;;;;0.60;0.60;;;;;;;3.64;87.66;95360.94;29396;199;63009;-54
2022/01/05 01:40:57;;;;;;;0.50;0.50;;;;;;;3.58;88.21;95365.56;29396;218;63004;-64
2022/01/05 01:41:28;;;;;;;0.60;0.60;;;;;;;3.57;88.17;95361.28;29396;208;63008;-59
2022/01/05 01:41:59;;;;;;;0.60;0.60;;;;;;;3.55;88.03;95363.44;29396;197;63005;-64
2022/01/05 01:42:31;;;;;;;0.60;0.60;;;;;;;3.63;88.10;95367.37;29395;216;64009;-78
2022/01/05 01:43:03;;;;;;;0.50;0.50;;;;;;;3.66;87.85;95367.63;29396;228;63005;-63
2022/01/05 01:43:34;;;;;;;0.60;0.60;;;;;;;3.70;87.86;95357.13;29396;220;63009;-66
2022/01/05 01:44:06;;;;;;;0.60;0.60;;;;;;;3.69;87.77;95371.62;29396;245;63005;-71
2022/01/05 01:44:38;;;;;;;0.60;0.60;;;;;;;3.74;87.21;95363.50;29396;263;63009;-66
2022/01/05 01:45:10;;;;;;;0.50;0.50;;;;;;;3.73;87.49;95367.28;29396;243;63005;-60
2022/01/05 01:45:41;;;;;;;0.60;0.60;;;;;;;3.70;86.99;95362.47;29396;234;63009;-64
2022/01/05 01:46:13;;;;;;;0.60;0.60;;;;;;;3.64;87.30;95363.62;29396;197;63011;-63
2022/01/05 01:46:44;;;;;;;0.60;0.60;;;;;;;3.62;87.28;95366.59;29395;225;64009;-64
2022/01/05 01:47:15;;;;;;;0.60;0.60;;;;;;;3.68;87.79;95353.94;29396;196;63008;-64
2022/01/05 01:47:47;;;;;;;0.50;0.50;;;;;;;3.70;87.34;95362.47;29396;247;63009;-53
2022/01/05 01:48:18;;;;;;;0.60;0.60;;;;;;;3.66;87.68;95358.78;29396;196;63004;-64
2022/01/05 01:48:49;;;;;;;0.50;0.50;;;;;;;3.63;87.60;95348.62;29396;210;63008;-63
2022/01/05 01:49:21;;;;;;;0.50;0.50;;;;;;;3.62;88.09;95361.22;29395;201;64005;-63
2022/01/05 01:49:59;;;;;;;0.60;0.60;;;;;;;3.60;88.02;95352.66;29395;259;64009;-62
2022/01/05 01:50:30;;;;;;;0.50;0.50;;;;;;;3.59;88.13;95347.59;29396;199;63005;-66
2022/01/05 01:51:01;;;;;;;0.52;0.52;;;;;;;3.55;88.14;95357.28;29396;270;63009;-66
2022/01/05 01:51:32;;;;;;;0.60;0.60;;;;;;;3.52;87.93;95355.16;29396;210;63005;-54
2022/01/05 01:52:04;;;;;;;0.60;0.60;;;;;;;3.48;88.16;95359.50;29396;214;63009;-65
2022/01/05 01:52:35;;;;;;;0.55;0.55;;;;;;;3.48;88.71;95354.13;29396;197;63005;-74
2022/01/05 01:53:07;;;;;;;0.50;0.50;;;;;;;3.55;88.32;95355.41;29396;199;63024;-56
2022/01/05 01:53:38;;;;;;;0.60;0.60;;;;;;;3.54;88.45;95351.13;29396;227;63004;-54
2022/01/05 01:54:10;;;;;;;0.50;0.50;;;;;;;3.53;88.56;95356.75;29396;210;63009;-65
2022/01/05 01:54:41;;;;;;;0.60;0.60;;;;;;;3.52;89.05;95349.81;29396;208;63004;-66
2022/01/05 01:55:12;;;;;;;0.50;0.50;;;;;;;3.50;89.11;95349.28;29395;213;64009;-68
2022/01/05 01:55:46;;;;;;;0.60;0.60;;;;;;;3.55;89.04;95346.56;29396;287;63004;-54
2022/01/05 01:56:19;;;;;;;0.60;0.60;;;;;;;3.58;89.08;95348.66;29396;227;63015;-66
2022/01/05 01:56:54;;;;;;;0.50;0.50;;;;;;;3.58;89.19;95354.03;29396;202;63010;-72
2022/01/05 01:57:27;;;;;;;0.50;0.50;;;;;;;3.67;88.56;95350.44;29396;225;63009;-61
2022/01/05 01:57:59;;;;;;;0.50;0.50;;;;;;;3.66;88.36;95356.09;29396;245;63005;-61
2022/01/05 01:58:35;;;;;;;0.60;0.60;;;;;;;3.66;87.83;95361.47;29396;294;63009;-64
2022/01/05 01:59:07;;;;;;;0.50;0.50;;;;;;;3.62;87.77;95360.44;29396;219;63005;-64
2022/01/05 01:59:39;;;;;;;0.60;0.60;;;;;;;3.57;87.72;95357.78;29396;243;63009;-78
2022/01/05 02:00:12;;;;;;;0.50;0.50;;;;;;;3.67;87.96;95357.69;29396;205;63007;-77
2022/01/05 02:00:43;;;;;;;0.60;0.60;;;;;;;3.72;87.41;95354.94;29395;203;64009;-56
2022/01/05 02:01:16;;;;;;;0.60;0.60;;;;;;;3.72;87.23;95357.63;29396;244;63004;-64
2022/01/05 02:01:48;;;;;;;0.57;0.57;;;;;;;3.67;87.49;95353.13;29395;229;64009;-66
2022/01/05 02:02:20;;;;;;;0.60;0.60;;;;;;;3.64;88.09;95360.94;29396;236;63004;-62
2022/01/05 02:02:52;;;;;;;0.60;0.60;;;;;;;3.61;88.12;95358.81;29396;220;63009;-67
2022/01/05 02:03:23;;;;;;;0.60;0.60;;;;;;;3.60;88.41;95359.91;29396;220;63004;-65
2022/01/05 02:03:54;;;;;;;0.60;0.60;;;;;;;3.59;88.38;95350.25;29396;266;63008;-63
2022/01/05 02:04:27;;;;;;;0.60;0.60;;;;;;;3.56;88.67;95351.63;29396;218;63005;-64
2022/01/05 02:05:00;;;;;;;0.60;0.60;;;;;;;3.62;88.84;95355.06;29396;223;63009;-70
2022/01/05 02:05:31;;;;;;;0.60;0.60;;;;;;;3.63;88.64;95357.47;29396;296;63005;-65
2022/01/05 02:06:03;;;;;;;0.52;0.52;;;;;;;3.63;88.36;95357.47;29396;202;63009;-57
2022/01/05 02:06:34;;;;;;;0.50;0.50;;;;;;;3.61;88.38;95361.50;29396;199;63005;-58
2022/01/05 02:07:05;;;;;;;0.50;0.50;;;;;;;3.66;88.19;95367.63;29395;214;64009;-62
2022/01/05 02:07:36;;;;;;;0.57;0.57;;;;;;;3.67;87.95;95357.69;29397;289;63009;-65
2022/01/05 02:08:08;;;;;;;0.60;0.60;;;;;;;3.65;88.14;95366.03;29397;249;63009;-63
2022/01/05 02:08:39;;;;;;;0.50;0.50;;;;;;;3.64;87.91;95363.62;29395;207;64004;-64
2022/01/05 02:09:10;;;;;;;0.50;0.50;;;;;;;3.65;87.90;95370.59;29397;211;63009;-55
2022/01/05 02:09:42;;;;;;;0.50;0.50;;;;;;;3.64;87.83;95372.47;29397;212;63004;-55
2022/01/05 02:10:18;;;;;;;0.60;0.60;;;;;;;3.63;88.00;95372.75;29396;212;64009;-64
2022/01/05 02:10:51;;;;;;;0.50;0.50;;;;;;;3.70;88.20;95374.00;29394;206;64004;-55
2022/01/05 02:11:23;;;;;;;0.50;0.50;;;;;;;3.70;87.75;95373.22;29395;202;63008;-63
2022/01/05 02:11:54;;;;;;;0.50;0.50;;;;;;;3.70;87.51;95374.00;29394;201;64004;-55
2022/01/05 02:12:26;;;;;;;0.50;0.50;;;;;;;3.69;87.76;95379.66;29395;388;63009;-67
2022/01/05 02:12:59;;;;;;;0.52;0.52;;;;;;;3.67;87.79;95379.16;29395;206;63005;-65
2022/01/05 02:13:30;;;;;;;0.60;0.60;;;;;;;3.65;88.38;95386.69;29395;362;63009;-64
2022/01/05 02:14:02;;;;;;;0.50;0.50;;;;;;;3.65;88.53;95381.31;29395;312;63005;-66
2022/01/05 02:14:36;;;;;;;0.50;0.50;;;;;;;3.64;88.31;95385.88;29395;231;63009;-67
2022/01/05 02:15:08;;;;;;;0.50;0.50;;;;;;;3.64;88.56;95374.34;29395;241;63005;-63
2022/01/05 02:15:43;;;;;;;0.50;0.50;;;;;;;3.63;88.58;95378.12;29395;333;63009;-65
2022/01/05 02:16:30;;;;;;;0.60;0.60;;;;;;;3.61;88.81;95381.09;29395;203;63004;-61
2022/01/05 02:17:07;;;;;;;0.60;0.60;;;;;;;3.62;89.00;95371.16;29393;226;64009;-63
2022/01/05 02:18:07;;;;;;;0.55;0.55;;;;;;;3.62;89.10;95373.84;29395;204;63004;-66
2022/01/05 02:19:19;;;;;;;0.60;0.60;;;;;;;3.64;89.17;95369.00;29377;238;125005;-62
2022/01/05 02:19:51;;;;;;;0.60;0.60;;;;;;;3.68;89.37;95370.81;29395;210;63009;-65
2022/01/05 02:20:25;;;;;;;0.50;0.50;;;;;;;3.68;88.90;95376.19;29395;207;63015;-63
2022/01/05 02:21:05;;;;;;;0.60;0.60;;;;;;;3.68;88.74;95372.69;29395;288;63024;-54
2022/01/05 02:21:42;;;;;;;0.50;0.50;;;;;;;3.66;88.46;95372.19;29393;203;64005;-62
2022/01/05 02:22:14;;;;;;;0.57;0.57;;;;;;;3.67;88.47;95368.41;29395;233;63009;-54
2022/01/05 02:22:46;;;;;;;0.55;0.55;;;;;;;3.72;88.41;95376.41;29395;227;63005;-62
2022/01/05 02:23:17;;;;;;;0.60;0.60;;;;;;;3.73;88.31;95372.66;29395;231;63009;-64
2022/01/05 02:23:49;;;;;;;0.60;0.60;;;;;;;3.75;88.33;95381.22;29394;259;64004;-62
2022/01/05 02:24:20;;;;;;;0.52;0.52;;;;;;;3.74;88.03;95374.25;29395;235;63026;-54
2022/01/05 02:24:51;;;;;;;0.50;0.50;;;;;;;3.72;88.10;95371.03;29395;206;63004;-60
2022/01/05 02:25:23;;;;;;;0.60;0.60;;;;;;;3.72;88.09;95381.78;29395;206;63008;-61
2022/01/05 02:25:54;;;;;;;0.60;0.60;;;;;;;3.68;88.24;95370.03;29395;233;63004;-63
2022/01/05 02:26:26;;;;;;;0.60;0.60;;;;;;;3.66;88.28;95372.97;29395;231;63009;-61
2022/01/05 02:26:57;;;;;;;0.50;0.50;;;;;;;3.65;88.30;95365.22;29393;222;64005;-62
2022/01/05 02:27:29;;;;;;;0.60;0.60;;;;;;;3.67;88.31;95373.78;29394;280;64009;-55
2022/01/05 02:28:00;;;;;;;0.60;0.60;;;;;;;3.65;88.44;95366.03;29395;203;63005;-64
2022/01/05 02:28:32;;;;;;;0.50;0.50;;;;;;;3.64;88.45;95374.34;29394;213;63009;-64
2022/01/05 02:29:05;;;;;;;0.50;0.50;;;;;;;3.62;88.91;95371.16;29395;218;63005;-63
2022/01/05 02:29:36;;;;;;;0.60;0.60;;;;;;;3.61;88.85;95374.91;29395;324;63009;-55
2022/01/05 02:30:10;;;;;;;0.60;0.60;;;;;;;3.61;89.28;95365.00;29371;241;64016;-63
2022/01/05 02:30:43;;;;;;;0.60;0.60;;;;;;;3.60;89.08;95368.75;29395;245;63009;-63
2022/01/05 02:31:14;;;;;;;0.50;0.50;;;;;;;3.61;89.03;95366.87;29393;199;64004;-62
2022/01/05 02:31:46;;;;;;;0.50;0.50;;;;;;;3.60;89.34;95374.13;29395;206;63009;-62
2022/01/05 02:32:17;;;;;;;0.50;0.50;;;;;;;3.60;89.56;95367.97;29395;207;63008;-63
2022/01/05 02:32:49;;;;;;;0.60;0.60;;;;;;;3.61;89.36;95369.56;29395;210;63009;-57
2022/01/05 02:33:21;;;;;;;0.60;0.60;;;;;;;3.63;89.50;95376.22;29395;203;63004;-61
2022/01/05 02:33:53;;;;;;;0.50;0.50;;;;;;;3.71;89.32;95369.44;29395;234;63012;-63
2022/01/05 02:34:24;;;;;;;0.55;0.55;;;;;;;3.72;88.83;95376.41;29395;206;63005;-62
2022/01/05 02:34:55;;;;;;;0.60;0.60;;;;;;;3.70;88.51;95381.25;29395;197;63009;-62
2022/01/05 02:35:27;;;;;;;0.60;0.60;;;;;;;3.68;88.46;95380.75;29393;278;64005;-64
2022/01/05 02:35:58;;;;;;;0.50;0.50;;;;;;;3.86;87.75;95376.50;29395;228;63009;-65
2022/01/05 02:36:29;;;;;;;0.60;0.60;;;;;;;3.86;87.72;95388.03;29395;236;63005;-63